Time;durP1;ratioP1;P1;durP2;ratioP2;P2;SDS_P1;SDS_P2;PMS_P1;PMS_P2;Temp;Humidity;BMP_temperature;BMP_pressure;BME280_temperature;BME280_humidity;BME280_pressure;Samples;Min_cycle;Max_cycle;Signal;HPM_P1;HPM_P2
2021/04/21 04:36:56;;;;;;;26.65;16.45;;;;;;;5.06;84.27;99701.16;1766864;80;21286;-37
2021/04/21 04:39:23;;;;;;;21.85;16.10;;;;;;;5.23;84.15;99702.66;1666633;84;21198;-39
2021/04/21 04:41:51;;;;;;;25.72;17.55;;;;;;;5.38;83.77;99707.14;1720827;81;21175;-42
2021/04/21 04:44:19;;;;;;;24.00;17.12;;;;;;;5.50;83.33;99703.39;1719320;82;21325;-42
2021/04/21 04:46:49;;;;;;;29.00;19.80;;;;;;;5.60;83.00;99701.77;1721422;81;21563;-42
2021/04/21 04:49:18;;;;;;;25.92;17.37;;;;;;;5.72;82.98;99706.22;1716902;82;21140;-37
2021/04/21 04:51:47;;;;;;;23.18;16.15;;;;;;;5.84;82.92;99697.25;1719622;82;21159;-37
2021/04/21 04:54:15;;;;;;;25.48;16.55;;;;;;;5.98;82.74;99700.89;1708147;82;21120;-41
2021/04/21 04:56:44;;;;;;;25.12;15.95;;;;;;;6.10;82.35;99703.59;1707105;82;21200;-41
2021/04/21 04:59:13;;;;;;;23.42;15.25;;;;;;;6.21;82.43;99705.42;1713933;82;21640;-41
2021/04/21 05:01:59;;;;;;;22.27;16.05;;;;;;;6.34;82.29;99709.42;1695984;83;21321;-36
2021/04/21 05:04:34;;;;;;;20.02;13.70;;;;;;;6.46;81.91;99707.34;1717749;81;21191;-41
2021/04/21 05:07:09;;;;;;;18.98;14.58;;;;;;;6.57;81.87;99710.88;1717742;82;21167;-36
2021/04/21 05:09:41;;;;;;;18.75;14.25;;;;;;;6.71;81.24;99721.36;1719395;82;21956;-37
2021/04/21 05:12:12;;;;;;;23.45;14.93;;;;;;;6.84;80.93;99724.50;1715458;81;21596;-37
2021/04/21 05:14:42;;;;;;;19.42;14.80;;;;;;;6.95;80.61;99723.23;1720203;81;21187;-36
2021/04/21 05:17:38;;;;;;;19.50;15.08;;;;;;;7.09;80.62;99720.30;1704402;82;21171;-36
2021/04/21 05:20:44;;;;;;;16.95;12.58;;;;;;;7.24;80.22;99720.78;1710532;81;21656;-35
2021/04/21 05:24:03;;;;;;;19.27;14.25;;;;;;;7.42;79.65;99723.48;1668485;84;21349;-38
2021/04/21 05:28:07;;;;;;;18.48;12.85;;;;;;;7.59;78.91;99718.30;1690221;81;21959;-42
2021/04/21 05:32:32;;;;;;;18.40;13.40;;;;;;;7.80;78.11;99725.75;1719726;82;21435;-43
2021/04/21 05:45:46;;;;;;;16.93;11.68;;;;;;;8.56;75.76;99730.17;1712451;81;21287;-43
2021/04/21 05:53:47;;;;;;;20.72;13.83;;;;;;;8.99;74.26;99732.30;1730128;81;21135;-36
2021/04/21 05:56:54;;;;;;;13.20;10.55;;;;;;;9.20;72.37;99732.64;1711475;82;21547;-35
2021/04/21 05:59:51;;;;;;;16.42;11.85;;;;;;;9.31;72.70;99732.17;1713893;81;21171;-36
2021/04/21 06:02:22;;;;;;;19.95;11.22;;;;;;;9.44;71.27;99730.38;1711667;80;21224;-42
2021/04/21 06:05:09;;;;;;;15.25;11.93;;;;;;;9.55;71.03;99743.81;1709992;81;21500;-42
2021/04/21 06:07:43;;;;;;;14.85;11.12;;;;;;;9.68;71.18;99734.61;1705582;81;21966;-36
2021/04/21 06:10:28;;;;;;;18.55;12.13;;;;;;;9.80;71.01;99732.82;1706091;82;21565;-36
2021/04/21 06:13:00;;;;;;;18.17;12.28;;;;;;;9.91;70.50;99732.73;1703521;83;21187;-35
2021/04/21 06:15:32;;;;;;;12.33;9.88;;;;;;;10.03;70.19;99737.91;1689322;83;21200;-42
2021/04/21 06:18:04;;;;;;;13.05;10.50;;;;;;;10.16;69.62;99737.82;1683988;83;21196;-41
2021/04/21 06:39:02;;;;;;;11.15;8.03;;;;;;;10.95;64.73;99750.66;1729614;80;21447;-42
2021/04/21 06:43:20;;;;;;;9.83;8.40;;;;;;;11.10;63.01;99759.23;1720055;80;21140;-37
2021/04/21 06:47:13;;;;;;;10.72;8.30;;;;;;;11.29;62.33;99763.82;1712242;80;21653;-43
2021/04/21 06:50:11;;;;;;;15.55;9.40;;;;;;;11.29;62.79;99764.27;1722328;80;21714;-36
2021/04/21 06:53:03;;;;;;;11.15;7.92;;;;;;;11.22;62.59;99765.22;1711744;82;21189;-38
2021/04/21 06:55:45;;;;;;;8.15;6.92;;;;;;;11.29;62.42;99770.37;1718994;81;21201;-42
2021/04/21 06:58:21;;;;;;;8.30;6.92;;;;;;;11.57;61.68;99763.05;1689717;82;21182;-37
2021/04/21 07:01:24;;;;;;;11.40;7.20;;;;;;;11.88;58.94;99777.95;1772934;78;23586;-36
2021/04/21 07:03:50;;;;;;;10.28;8.08;;;;;;;11.90;58.79;99783.20;1735516;81;21230;-41
2021/04/21 07:06:21;;;;;;;10.35;7.40;;;;;;;11.86;59.27;99778.88;1734550;81;21169;-36
2021/04/21 07:08:52;;;;;;;10.80;7.87;;;;;;;11.79;59.34;99771.96;1737098;81;21917;-36
2021/04/21 07:11:23;;;;;;;9.53;6.92;;;;;;;11.75;58.84;99795.16;1737605;81;21318;-36
2021/04/21 07:13:52;;;;;;;11.40;7.08;;;;;;;11.65;58.78;99786.12;1734083;81;21138;-37
2021/04/21 07:16:44;;;;;;;9.63;6.83;;;;;;;11.57;58.74;99778.77;1708201;81;21331;-42
2021/04/21 07:20:19;;;;;;;8.38;5.62;;;;;;;11.50;59.33;99788.91;1736156;81;21367;-42
2021/04/21 07:23:26;;;;;;;9.28;6.65;;;;;;;11.48;58.44;99781.52;1737590;81;21324;-43
2021/04/21 07:31:19;;;;;;;9.45;7.40;;;;;;;11.28;59.55;99784.80;1735305;81;21154;-43
2021/04/21 07:39:37;;;;;;;9.55;4.33;;;;;;;11.51;61.32;99776.67;1738877;81;21520;-37
2021/04/21 07:47:41;;;;;;;6.12;3.20;;;;;;;12.41;56.43;99809.58;1736990;81;21132;-37
2021/04/21 07:50:34;;;;;;;3.47;2.65;;;;;;;12.62;52.88;99799.17;1717411;81;21591;-36
2021/04/21 07:53:36;;;;;;;4.75;3.52;;;;;;;12.58;51.87;99786.98;1729158;81;21905;-42
2021/04/21 07:56:13;;;;;;;5.72;3.95;;;;;;;12.48;52.56;99800.72;1706870;82;21249;-37
2021/04/21 07:58:46;;;;;;;5.03;4.40;;;;;;;12.44;53.82;99785.91;1718772;82;21199;-36
2021/04/21 08:01:35;;;;;;;6.87;4.55;;;;;;;12.39;52.86;99815.27;1736924;81;21187;-37
2021/04/21 08:04:25;;;;;;;5.35;4.37;;;;;;;12.34;53.72;99800.05;1714480;82;21656;-36
2021/04/21 08:07:00;;;;;;;5.20;4.65;;;;;;;12.41;55.47;99797.33;1736602;81;21155;-41
2021/04/21 08:09:34;;;;;;;8.08;5.40;;;;;;;12.69;54.63;99798.17;1732839;80;21504;-42
2021/04/21 08:12:08;;;;;;;;;;;;;;;12.86;53.43;99792.20;1739582;81;21305;-42
2021/04/21 08:14:39;;;;;;;5.85;5.25;;;;;;;12.92;53.92;99796.03;1735022;81;20256;-43
2021/04/21 08:17:07;;;;;;;7.80;5.53;;;;;;;12.99;53.14;99821.31;1732627;81;21312;-43
2021/04/21 08:19:39;;;;;;;6.67;5.58;;;;;;;13.06;52.67;99824.69;1734103;81;21381;-42
2021/04/21 08:22:07;;;;;;;7.58;4.03;;;;;;;13.13;53.15;99815.80;1740968;81;21619;-37
2021/04/21 08:28:19;;;;;;;5.70;3.58;;;;;;;13.29;51.65;99804.16;1730374;81;21187;-37
2021/04/21 08:31:12;;;;;;;3.72;3.10;;;;;;;13.40;50.11;99824.11;1735463;81;21691;-37
2021/04/21 08:33:46;;;;;;;4.35;3.95;;;;;;;13.51;49.58;99812.92;1737021;81;21136;-37
2021/04/21 08:36:22;;;;;;;3.83;3.45;;;;;;;13.52;49.09;99819.94;1733482;81;21304;-43
2021/04/21 08:39:09;;;;;;;3.60;3.30;;;;;;;13.38;49.11;99818.87;1734928;81;21150;-37
2021/04/21 08:42:16;;;;;;;4.42;4.03;;;;;;;13.19;50.21;99813.52;1737431;81;22206;-41
2021/04/21 08:44:45;;;;;;;5.00;3.90;;;;;;;13.07;49.88;99817.22;1744030;81;21301;-42
2021/04/21 08:47:15;;;;;;;4.28;3.65;;;;;;;13.14;51.04;99801.77;1738515;81;21159;-42
2021/04/21 08:49:43;;;;;;;7.25;3.70;;;;;;;13.20;50.18;99804.73;1738654;81;21224;-42
2021/04/21 08:52:17;;;;;;;4.30;3.83;;;;;;;13.12;51.01;99825.03;1731803;81;21281;-37
2021/04/21 08:54:48;;;;;;;5.25;3.27;;;;;;;12.99;50.58;99813.43;1736265;81;21177;-38
2021/04/21 08:57:16;;;;;;;6.35;3.72;;;;;;;12.89;50.06;99832.85;1735178;81;21135;-41
2021/04/21 08:59:44;;;;;;;4.08;3.40;;;;;;;12.78;50.99;99830.84;1699044;82;21199;-42
2021/04/21 09:02:12;;;;;;;8.05;4.67;;;;;;;12.72;51.03;99813.89;1713252;82;21176;-43
2021/04/21 09:04:40;;;;;;;5.60;3.90;;;;;;;12.75;52.29;99811.20;1709692;82;21190;-38
2021/04/21 09:07:09;;;;;;;4.85;3.60;;;;;;;12.98;52.28;99812.13;1706782;82;21198;-37
2021/04/21 09:09:50;;;;;;;8.55;4.05;;;;;;;13.06;48.50;99799.73;1709996;82;21194;-42
2021/04/21 09:12:52;;;;;;;7.17;3.98;;;;;;;12.99;49.40;99809.49;1708842;82;21210;-37
2021/04/21 09:16:32;;;;;;;4.60;3.55;;;;;;;12.92;49.21;99813.09;1711864;82;21187;-37
2021/04/21 09:20:06;;;;;;;5.35;3.58;;;;;;;12.85;49.46;99813.23;1684604;82;21166;-42
2021/04/21 09:36:07;;;;;;;5.12;4.17;;;;;;;12.70;52.92;99826.19;1709486;82;21153;-43
2021/04/21 09:39:15;;;;;;;6.20;4.72;;;;;;;12.61;52.30;99831.11;1707652;82;21718;-44
2021/04/21 09:42:00;;;;;;;4.35;3.95;;;;;;;12.53;52.47;99833.00;1710520;82;21192;-37
2021/04/21 09:47:16;;;;;;;5.62;3.92;;;;;;;12.63;52.99;99828.01;1765057;79;22442;-37
2021/04/21 09:49:48;;;;;;;4.55;4.10;;;;;;;12.65;52.66;99833.26;1739484;80;22021;-39
2021/04/21 09:52:26;;;;;;;7.10;5.92;;;;;;;12.70;52.56;99832.30;1718720;81;21167;-44
2021/04/21 09:54:56;;;;;;;4.58;4.17;;;;;;;12.78;52.03;99834.78;1721457;81;22169;-42
2021/04/21 10:00:08;;;;;;;5.50;3.98;;;;;;;13.15;50.91;99831.08;1802668;77;23529;-37
2021/04/21 10:02:39;;;;;;;4.67;3.97;;;;;;;13.27;49.62;99844.47;1804863;78;21689;-43
2021/04/21 10:05:35;;;;;;;7.92;4.12;;;;;;;13.47;50.54;99830.98;1802209;78;21150;-44
2021/04/21 10:08:33;;;;;;;6.20;4.50;;;;;;;13.65;49.62;99830.61;1775846;78;22075;-37
2021/04/21 10:11:06;;;;;;;6.30;4.10;;;;;;;13.63;48.80;99828.48;1761828;78;21154;-44
2021/04/21 10:13:48;;;;;;;10.28;4.75;;;;;;;13.54;48.98;99837.84;1798631;78;21169;-38
2021/04/21 10:16:29;;;;;;;4.53;3.95;;;;;;;13.57;49.92;99828.59;1802539;78;21158;-38
2021/04/21 10:24:08;;;;;;;8.00;4.28;;;;;;;13.69;47.45;99825.72;1798932;78;21609;-39
2021/04/21 10:32:37;;;;;;;5.40;4.37;;;;;;;13.31;51.33;99836.95;1799249;78;21278;-44
2021/04/21 10:36:18;;;;;;;6.72;4.80;;;;;;;13.05;53.20;99834.33;1799008;78;21138;-39
2021/04/21 10:39:35;;;;;;;8.87;6.73;;;;;;;12.94;53.25;99839.34;1801109;78;21162;-42
2021/04/21 10:42:07;;;;;;;5.72;4.62;;;;;;;12.78;53.78;99845.28;1801355;78;21560;-43
2021/04/21 10:44:44;;;;;;;4.67;4.17;;;;;;;12.65;52.17;99860.81;1770417;79;21251;-38
2021/04/21 10:47:25;;;;;;;6.45;4.33;;;;;;;12.41;56.62;99872.09;1744958;81;21144;-40
2021/04/21 10:50:00;;;;;;;5.25;4.75;;;;;;;11.90;59.43;99910.34;1723897;81;21213;-43
2021/04/21 10:52:34;;;;;;;4.53;4.10;;;;;;;11.05;62.25;99898.47;1743635;81;21502;-44
2021/04/21 10:55:12;;;;;;;4.97;4.40;;;;;;;10.39;64.77;99908.52;1747990;81;21216;-40
2021/04/21 10:57:42;;;;;;;8.90;4.95;;;;;;;10.06;65.94;99918.66;1744533;81;21546;-42
2021/04/21 11:00:17;;;;;;;4.35;3.90;;;;;;;9.92;68.17;99900.86;1727659;81;21776;-44
2021/04/21 11:02:53;;;;;;;5.05;3.90;;;;;;;9.92;68.67;99893.89;1733387;82;21419;-38
2021/04/21 11:05:32;;;;;;;8.88;5.05;;;;;;;10.07;69.84;99885.10;1727754;82;21218;-38
2021/04/21 11:08:22;;;;;;;4.72;4.33;;;;;;;10.27;70.72;99882.00;1700442;82;21311;-38
2021/04/21 11:11:04;;;;;;;3.67;3.37;;;;;;;10.49;71.24;99874.01;1729354;81;21196;-39
2021/04/21 11:13:40;;;;;;;5.33;4.37;;;;;;;10.72;70.26;99878.64;1708855;82;21624;-44
2021/04/21 11:16:35;;;;;;;5.87;5.28;;;;;;;10.92;69.55;99875.89;1716404;81;21185;-42
2021/04/21 11:19:25;;;;;;;8.75;5.92;;;;;;;11.06;69.97;99877.94;1717598;81;21700;-38
2021/04/21 11:22:19;;;;;;;7.55;4.40;;;;;;;11.22;69.40;99874.75;1722512;82;21174;-43
2021/04/21 11:25:25;;;;;;;5.25;4.60;;;;;;;11.40;67.30;99878.95;1750863;80;21150;-38
2021/04/21 11:27:54;;;;;;;5.40;3.67;;;;;;;11.59;66.22;99873.94;1722180;82;21139;-44
2021/04/21 11:30:42;;;;;;;3.27;2.98;;;;;;;11.98;58.60;99881.81;1728565;82;21358;-46
2021/04/21 11:33:52;;;;;;;3.52;2.40;;;;;;;12.36;59.92;99879.16;1728588;82;21696;-38
2021/04/21 11:36:38;;;;;;;2.47;2.27;;;;;;;12.99;54.22;99869.89;1783361;78;23237;-36
2021/04/21 11:39:13;;;;;;;3.20;1.95;;;;;;;13.26;52.47;99872.50;1783307;78;21154;-41
2021/04/21 11:41:47;;;;;;;5.05;2.40;;;;;;;13.57;50.21;99878.53;1774389;78;21161;-36
2021/04/21 11:44:56;;;;;;;2.83;2.52;;;;;;;13.81;49.83;99865.36;1786394;78;21548;-43
2021/04/21 11:47:45;;;;;;;3.83;3.12;;;;;;;13.88;49.44;99862.16;1779378;78;21163;-42
2021/04/21 11:50:24;;;;;;;5.42;3.27;;;;;;;13.91;49.71;99868.66;1785206;78;21560;-41
2021/04/21 11:53:15;;;;;;;3.50;2.55;;;;;;;13.96;47.64;99870.74;1783010;78;21155;-36
2021/04/21 11:56:05;;;;;;;3.70;3.40;;;;;;;14.03;50.27;99871.92;1766858;78;21664;-36
2021/04/21 11:58:37;;;;;;;3.55;3.10;;;;;;;14.16;48.04;99863.31;1790975;78;21416;-43
2021/04/21 12:01:10;;;;;;;5.15;3.80;;;;;;;14.24;47.88;99865.77;1764831;78;21115;-36
2021/04/21 12:03:40;;;;;;;6.28;3.83;;;;;;;14.23;49.47;99858.33;1765186;78;21309;-36
2021/04/21 12:06:13;;;;;;;4.70;4.22;;;;;;;14.24;51.22;99855.25;1789004;78;21426;-36
2021/04/21 12:08:46;;;;;;;5.33;4.83;;;;;;;14.25;50.10;99862.23;1777165;78;21147;-36
2021/04/21 12:11:27;;;;;;;7.05;4.00;;;;;;;14.21;49.99;99880.33;1786558;78;21183;-42
2021/04/21 12:13:54;;;;;;;5.42;4.45;;;;;;;14.15;47.27;99868.59;1760397;80;21666;-41
2021/04/21 12:16:23;;;;;;;4.58;3.72;;;;;;;14.12;49.85;99872.16;1728807;81;21195;-42
2021/04/21 12:18:58;;;;;;;3.80;3.40;;;;;;;14.19;48.57;99874.20;1731370;81;21127;-43
2021/04/21 12:21:36;;;;;;;4.67;4.17;;;;;;;14.23;47.16;99862.28;1734002;81;22142;-37
2021/04/21 12:24:08;;;;;;;3.83;3.50;;;;;;;14.31;47.78;99866.91;1761260;80;21179;-44
2021/04/21 12:26:37;;;;;;;5.45;3.83;;;;;;;14.40;48.47;99863.22;1742494;81;21208;-36
2021/04/21 12:29:15;;;;;;;3.30;3.00;;;;;;;14.54;47.92;99858.98;1725266;81;21186;-37
2021/04/21 12:31:43;;;;;;;7.80;4.42;;;;;;;14.62;46.55;99861.88;1735590;81;21701;-41
2021/04/21 12:34:17;;;;;;;4.72;4.10;;;;;;;14.70;47.20;99856.41;1734870;81;21154;-37
2021/04/21 12:36:46;;;;;;;4.55;4.12;;;;;;;14.80;47.30;99851.80;1741818;81;21167;-41
2021/04/21 12:39:21;;;;;;;5.12;4.50;;;;;;;14.98;47.04;99849.17;1696525;82;21162;-36
2021/04/21 12:41:58;;;;;;;4.17;3.75;;;;;;;15.14;45.28;99850.52;1743464;81;21202;-37
2021/04/21 12:44:33;;;;;;;4.50;3.85;;;;;;;15.36;46.45;99852.98;1728409;82;21170;-35
2021/04/21 12:47:09;;;;;;;3.87;3.47;;;;;;;15.66;45.91;99852.66;1732784;81;21521;-40
2021/04/21 12:49:41;;;;;;;5.28;3.92;;;;;;;16.02;42.09;99852.97;1757509;81;21182;-42
2021/04/21 12:52:16;;;;;;;7.53;3.45;;;;;;;16.27;42.54;99837.27;1742830;81;21138;-36
2021/04/21 12:54:47;;;;;;;4.65;3.77;;;;;;;16.33;42.88;99847.17;1729722;82;21199;-42
2021/04/21 12:57:21;;;;;;;4.80;3.92;;;;;;;16.35;40.85;99843.16;1739353;81;21698;-37
2021/04/21 12:59:55;;;;;;;3.65;3.27;;;;;;;16.33;41.98;99835.75;1737155;82;21555;-36
2021/04/21 13:02:51;;;;;;;4.28;3.22;;;;;;;16.41;40.77;99828.02;1737193;81;21159;-37
